page 5300 of 1016778 registered users

eBook PostsUsers

  1. 0racing44find registered @ 2013-01-08 08:47:50, last login @ 2013-01-08 08:47:50
  2. 0storm6peanut registered @ 2013-01-08 08:48:51, last login @ 2013-01-08 08:48:51
  3. 0steel97skiing registered @ 2013-01-08 08:48:52, last login @ 2013-01-08 08:48:52
  4. 0beadtheory3 registered @ 2013-01-08 08:48:53, last login @ 2013-01-08 08:48:53
  5. 0tauruscrush93 registered @ 2013-01-08 08:49:18, last login @ 2013-01-08 08:49:18
  6. 02sha registered @ 2013-01-08 08:50:10, last login @ 2013-01-08 08:50:10
  7. 0house77inch registered @ 2013-01-08 08:52:43, last login @ 2013-01-08 08:52:43
  8. 0melodylock34 registered @ 2013-01-08 08:55:16, last login @ 2013-01-08 08:55:16
  9. 0tableday8 registered @ 2013-01-08 08:55:21, last login @ 2013-01-08 08:55:21
  10. 0organcrop20 registered @ 2013-01-08 08:55:51, last login @ 2013-01-08 08:55:51
  11. 0zebracolon47 registered @ 2013-01-08 08:56:10, last login @ 2013-01-08 08:56:10
  12. 0eventink8 registered @ 2013-01-08 08:57:03, last login @ 2013-01-08 08:57:03
  13. 0davidorder9 registered @ 2013-01-08 08:57:41, last login @ 2013-01-08 08:57:41
  14. 0coal7hockey registered @ 2013-01-08 08:58:39, last login @ 2013-01-08 08:58:39
  15. 0borderruth49 registered @ 2013-01-08 08:59:07, last login @ 2013-01-08 08:59:07
  16. 0needsharon3 registered @ 2013-01-08 08:59:57, last login @ 2013-01-08 08:59:57
  17. 0platehoney9 registered @ 2013-01-08 09:00:05, last login @ 2013-01-08 09:00:05
  18. 0soccerfang73 registered @ 2013-01-08 09:01:41, last login @ 2013-01-08 09:01:41
  19. 0sword7map registered @ 2013-01-08 09:02:12, last login @ 2013-01-08 09:02:12
  20. 0bank9washer registered @ 2013-01-08 09:03:25, last login @ 2013-01-08 09:03:25
  21. 0yarn4leek registered @ 2013-01-08 09:03:54, last login @ 2013-01-08 09:03:54
  22. 0carshape3 registered @ 2013-01-08 09:04:04, last login @ 2013-01-08 09:04:04
  23. 0trucktalk7 registered @ 2013-01-08 09:05:01, last login @ 2013-01-08 09:05:01
  24. 0wood87flare registered @ 2013-01-08 09:05:49, last login @ 2013-01-08 09:05:49
  25. 0celery6grain registered @ 2013-01-08 09:07:05, last login @ 2013-01-08 09:07:05
  26. 0jellycurve5 registered @ 2013-01-08 09:07:34, last login @ 2013-01-08 09:07:34
  27. 0badger02nickel registered @ 2013-01-08 09:07:47, last login @ 2013-01-08 09:07:47
  28. 0cannontest4 registered @ 2013-01-08 09:07:50, last login @ 2013-01-08 09:07:50
  29. 0pearblue42 registered @ 2013-01-08 09:11:58, last login @ 2013-01-08 09:11:58
  30. 0edge9animal registered @ 2013-01-08 09:12:21, last login @ 2013-01-08 09:12:21
  31. 0novelvalue18 registered @ 2013-01-08 09:13:34, last login @ 2013-01-08 09:13:34
  32. 0burstsilver85 registered @ 2013-01-08 09:13:46, last login @ 2013-01-08 09:13:46
  33. 0toast7lilac registered @ 2013-01-08 09:14:42, last login @ 2013-01-08 09:43:31
  34. 0trick46muscle registered @ 2013-01-08 09:14:44, last login @ 2013-01-08 09:39:58
  35. 0burst3nest registered @ 2013-01-08 09:16:40, last login @ 2013-01-08 09:16:40
  36. 0front21collar registered @ 2013-01-08 09:16:57, last login @ 2013-01-08 09:16:57
  37. 0jumbo93apple registered @ 2013-01-08 09:18:21, last login @ 2013-01-08 09:18:21
  38. 0singletower8 registered @ 2013-01-08 09:18:27, last login @ 2013-01-08 09:18:27
  39. 0authorhealth0 registered @ 2013-01-08 09:19:09, last login @ 2013-01-08 09:19:09
  40. 0temple3hub registered @ 2013-01-08 09:19:27, last login @ 2013-01-08 09:19:27
  41. 0woolen73daniel registered @ 2013-01-08 09:19:51, last login @ 2013-01-08 09:19:51
  42. 0Coosque registered @ 2013-01-08 09:21:03, last login @ 2013-01-08 09:21:03
  43. 0lomaqmlgt registered @ 2013-01-08 09:21:04, last login @ 2013-01-08 09:21:04
  44. 0toysponge82 registered @ 2013-01-08 09:22:08, last login @ 2013-01-08 09:22:08
  45. 0actionthing13 registered @ 2013-01-08 09:22:50, last login @ 2013-01-08 09:44:41
  46. 0menu5crow registered @ 2013-01-08 09:23:15, last login @ 2013-01-08 09:23:15
  47. 0arch09mole registered @ 2013-01-08 09:23:17, last login @ 2013-01-08 09:23:17
  48. 0jailshame7 registered @ 2013-01-08 09:23:57, last login @ 2013-01-08 09:23:57
  49. 0cookcornet8 registered @ 2013-01-08 09:24:02, last login @ 2013-01-08 09:24:02
  50. 0call0font registered @ 2013-01-08 09:24:11, last login @ 2013-01-08 09:24:11
  51. 0magic0catsup registered @ 2013-01-08 09:24:16, last login @ 2013-01-08 09:24:16
  52. 0ronald5bait registered @ 2013-01-08 09:24:18, last login @ 2013-01-08 09:24:18
  53. 0authorsmile47 registered @ 2013-01-08 09:24:44, last login @ 2013-01-08 09:24:44
  54. 0yellow60town registered @ 2013-01-08 09:25:08, last login @ 2013-01-08 09:25:08
  55. 0roadslime8 registered @ 2013-01-08 09:25:34, last login @ 2013-01-08 09:25:34
  56. 0pest1week registered @ 2013-01-08 09:25:57, last login @ 2013-01-08 09:25:57
  57. 0checklawyer2 registered @ 2013-01-08 09:26:27, last login @ 2013-01-08 09:26:27
  58. 0column08pain registered @ 2013-01-08 09:27:00, last login @ 2013-01-08 09:27:00
  59. 0slashbrake19 registered @ 2013-01-08 09:27:07, last login @ 2013-01-08 09:27:07
  60. 0bacondecade17 registered @ 2013-01-08 09:28:03, last login @ 2013-01-08 09:54:45
  61. 0father87silver registered @ 2013-01-08 09:29:18, last login @ 2013-01-08 09:29:18
  62. 0litter1stop registered @ 2013-01-08 09:30:11, last login @ 2013-01-08 09:30:11
  63. 0aries32fold registered @ 2013-01-08 09:30:25, last login @ 2013-01-08 09:30:25
  64. 0wine23blow registered @ 2013-01-08 09:30:27, last login @ 2013-01-08 09:30:27
  65. 0planetwool05 registered @ 2013-01-08 09:33:35, last login @ 2013-01-08 09:33:35
  66. 0answer67family registered @ 2013-01-08 09:33:50, last login @ 2013-01-08 09:33:50
  67. 0shark99song registered @ 2013-01-08 09:34:09, last login @ 2013-01-08 09:34:09
  68. 0makeupweek99 registered @ 2013-01-08 09:35:26, last login @ 2013-01-08 09:35:26
  69. 0trunkotter3 registered @ 2013-01-08 09:36:07, last login @ 2013-01-08 09:36:07
  70. 0hubstone14 registered @ 2013-01-08 09:36:09, last login @ 2013-01-08 09:36:09
  71. 0pagegemini5 registered @ 2013-01-08 09:36:46, last login @ 2013-01-08 09:36:46
  72. 0taxi47dirt registered @ 2013-01-08 09:37:17, last login @ 2013-01-08 09:37:17
  73. 0changedew17 registered @ 2013-01-08 09:37:24, last login @ 2013-01-08 09:37:24
  74. 0pickleprice28 registered @ 2013-01-08 09:38:00, last login @ 2013-01-08 09:38:00
  75. 0sandragauge90 registered @ 2013-01-08 09:38:08, last login @ 2013-01-08 09:38:08
  76. 0creamtuna8 registered @ 2013-01-08 09:39:51, last login @ 2013-01-08 09:39:51
  77. 0eaglepolice92 registered @ 2013-01-08 09:40:25, last login @ 2013-01-08 09:40:25
  78. 0quiver3soap registered @ 2013-01-08 09:42:46, last login @ 2013-01-08 09:42:46
  79. 0skin22fire registered @ 2013-01-08 09:43:08, last login @ 2013-01-08 09:43:08
  80. 0MervinPitts07 registered @ 2013-01-08 09:43:34, last login @ 2013-01-08 09:43:34
  81. 0maid3africa registered @ 2013-01-08 09:43:42, last login @ 2013-01-08 09:43:42
  82. 0nut03size registered @ 2013-01-08 09:43:52, last login @ 2013-01-08 09:43:52
  83. 0fridgewoman27 registered @ 2013-01-08 09:44:21, last login @ 2013-01-08 09:44:21
  84. 0paste25ink registered @ 2013-01-08 09:44:54, last login @ 2013-01-08 09:44:54
  85. 0milk72memory registered @ 2013-01-08 09:45:49, last login @ 2013-01-08 09:45:49
  86. 0mail5coal registered @ 2013-01-08 09:45:58, last login @ 2013-01-08 09:45:58
  87. 0chance0ounce registered @ 2013-01-08 09:46:50, last login @ 2013-01-08 09:46:50
  88. 0pen98daisy registered @ 2013-01-08 09:46:56, last login @ 2013-01-08 09:46:56
  89. 0earthclef87 registered @ 2013-01-08 09:47:12, last login @ 2013-01-08 09:47:12
  90. 0steel93alarm registered @ 2013-01-08 09:49:12, last login @ 2013-01-08 09:49:12
  91. 0vise3crow registered @ 2013-01-08 09:50:13, last login @ 2013-01-08 09:50:13
  92. 0fir1piano registered @ 2013-01-08 09:50:43, last login @ 2013-01-08 09:50:43
  93. 0design2india registered @ 2013-01-08 09:52:52, last login @ 2013-01-08 09:52:52
  94. 0dinghy10second registered @ 2013-01-08 09:52:55, last login @ 2013-01-08 09:52:55
  95. 0gardentrick9 registered @ 2013-01-08 09:52:58, last login @ 2013-01-08 09:52:58
  96. 0pencil1yarn registered @ 2013-01-08 09:53:09, last login @ 2013-01-08 09:53:09
  97. 0spongemiddle2 registered @ 2013-01-08 09:53:46, last login @ 2013-01-08 09:53:46
  98. 0AGSmithe88 registered @ 2013-01-08 09:53:46, last login @ 2013-01-08 09:53:46
  99. 0lewispemn8k9u3 registered @ 2013-01-08 09:54:13, last login @ 2013-01-08 09:54:13
  100. 0grayicicle15 registered @ 2013-01-08 09:55:18, last login @ 2013-01-08 09:55:18
  101. 0care30mexico registered @ 2013-01-08 09:55:42, last login @ 2013-01-08 09:55:42

More...

[5310] [5309] [5308] [5307] [5306] [5305] [5304] [5303] [5302] [5301] [5300] [5299] [5298] [5297] [5296] [5295] [5294] [5293] [5292] [5291] ...[1]
Back to Top